Time;durP1;ratioP1;P1;durP2;ratioP2;P2;SDS_P1;SDS_P2;PMS_P1;PMS_P2;Temp;Humidity;BMP_temperature;BMP_pressure;BME280_temperature;BME280_humidity;BME280_pressure;Samples;Min_cycle;Max_cycle;Signal;HPM_P1;HPM_P2
2021/12/22 00:01:29;;;;;;;18.58;9.27;;;;;;;;;;4987096;28;20129;-69
2021/12/22 00:03:55;;;;;;;21.75;9.88;;;;;;;;;;4985994;28;20092;-70
2021/12/22 00:06:25;;;;;;;22.00;9.27;;;;;;;;;;4984256;28;20048;-70
2021/12/22 00:08:52;;;;;;;18.58;9.07;;;;;;;;;;4984853;28;20508;-69
2021/12/22 00:11:19;;;;;;;19.33;9.20;;;;;;;;;;4978815;28;20051;-69
2021/12/22 00:13:46;;;;;;;22.48;10.77;;;;;;;;;;4977680;28;20085;-70
2021/12/22 00:16:12;;;;;;;19.55;9.10;;;;;;;;;;4981011;28;20130;-70
2021/12/22 00:18:40;;;;;;;22.17;9.68;;;;;;;;;;4985954;28;20053;-70
2021/12/22 00:21:07;;;;;;;17.08;9.00;;;;;;;;;;4983682;28;20128;-70
2021/12/22 00:23:33;;;;;;;18.17;9.63;;;;;;;;;;4980160;28;20070;-69
2021/12/22 00:26:00;;;;;;;19.17;9.50;;;;;;;;;;4980714;28;20145;-69
2021/12/22 00:28:26;;;;;;;17.98;8.65;;;;;;;;;;4980774;28;20077;-70
2021/12/22 00:30:53;;;;;;;19.65;9.88;;;;;;;;;;4982791;28;20618;-69
2021/12/22 00:33:20;;;;;;;17.30;9.02;;;;;;;;;;4984716;28;20549;-69
2021/12/22 00:35:48;;;;;;;17.75;9.38;;;;;;;;;;4987364;28;20054;-69
2021/12/22 00:38:17;;;;;;;19.02;8.95;;;;;;;;;;4992865;28;20118;-69
2021/12/22 00:40:44;;;;;;;19.02;9.57;;;;;;;;;;4967614;28;20510;-69
2021/12/22 00:43:11;;;;;;;20.48;9.32;;;;;;;;;;4986986;28;20589;-70
2021/12/22 00:45:38;;;;;;;18.08;9.27;;;;;;;;;;4985076;28;20473;-70
2021/12/22 00:48:09;;;;;;;15.93;8.50;;;;;;;;;;4968242;28;20054;-69
2021/12/22 00:50:37;;;;;;;16.52;9.40;;;;;;;;;;4981437;28;20130;-70
2021/12/22 00:53:05;;;;;;;18.98;8.68;;;;;;;;;;4994243;28;20137;-70
2021/12/22 00:55:32;;;;;;;14.15;7.95;;;;;;;;;;4987810;28;20093;-70
2021/12/22 00:57:59;;;;;;;17.73;8.43;;;;;;;;;;4983352;28;20054;-70
2021/12/22 01:00:26;;;;;;;17.50;9.50;;;;;;;;;;4987283;28;20089;-70
2021/12/22 01:02:53;;;;;;;17.65;8.85;;;;;;;;;;4988956;28;20090;-70
2021/12/22 01:05:20;;;;;;;20.77;9.45;;;;;;;;;;4990931;28;20125;-70
2021/12/22 01:07:48;;;;;;;25.48;11.18;;;;;;;;;;4989784;28;20137;-70
2021/12/22 01:10:19;;;;;;;18.55;10.55;;;;;;;;;;4987942;28;20105;-70
2021/12/22 01:12:45;;;;;;;23.25;11.98;;;;;;;;;;4988788;28;20078;-70
2021/12/22 01:15:13;;;;;;;24.85;10.88;;;;;;;;;;4989960;28;20124;-70
2021/12/22 01:17:46;;;;;;;20.02;10.52;;;;;;;;;;4987388;28;20144;-70
2021/12/22 01:20:20;;;;;;;25.42;10.38;;;;;;;;;;4987733;28;20065;-69
2021/12/22 01:22:48;;;;;;;26.77;11.88;;;;;;;;;;4986394;28;20145;-69
2021/12/22 01:25:21;;;;;;;21.13;9.82;;;;;;;;;;4987774;28;20042;-69
2021/12/22 01:27:48;;;;;;;18.92;9.02;;;;;;;;;;4989782;28;20107;-69
2021/12/22 01:30:19;;;;;;;21.05;9.38;;;;;;;;;;4981514;28;20097;-69
2021/12/22 01:32:45;;;;;;;17.73;8.68;;;;;;;;;;4992265;28;20146;-69
2021/12/22 01:35:15;;;;;;;20.17;8.40;;;;;;;;;;4988903;28;20133;-69
2021/12/22 01:37:42;;;;;;;16.52;8.88;;;;;;;;;;4986815;28;20056;-69
2021/12/22 01:40:11;;;;;;;16.70;9.70;;;;;;;;;;4991332;28;20125;-69
2021/12/22 01:42:39;;;;;;;20.15;9.98;;;;;;;;;;4983214;28;20531;-69
2021/12/22 01:45:26;;;;;;;18.85;8.95;;;;;;;;;;4988223;28;20084;-70
2021/12/22 01:50:42;;;;;;;15.00;8.07;;;;;;;;;;4986765;28;20080;-69
2021/12/22 01:53:36;;;;;;;15.57;8.18;;;;;;;;;;4985616;28;20133;-69
2021/12/22 01:56:12;;;;;;;20.13;8.47;;;;;;;;;;4983682;28;20054;-69
2021/12/22 01:58:42;;;;;;;17.33;8.68;;;;;;;;;;4976150;28;20049;-69
2021/12/22 02:01:10;;;;;;;15.27;8.50;;;;;;;;;;4986662;28;20050;-69
2021/12/22 02:03:37;;;;;;;17.63;8.85;;;;;;;;;;4987798;28;20507;-69
2021/12/22 02:06:05;;;;;;;20.13;8.95;;;;;;;;;;4986820;28;20109;-69
2021/12/22 02:08:32;;;;;;;19.25;8.65;;;;;;;;;;4970216;28;20091;-69
2021/12/22 02:10:58;;;;;;;17.63;8.60;;;;;;;;;;4985130;28;20429;-69
2021/12/22 02:13:30;;;;;;;22.20;9.43;;;;;;;;;;4979337;28;20050;-70
2021/12/22 02:16:05;;;;;;;14.55;8.00;;;;;;;;;;4986279;28;20127;-70
2021/12/22 02:18:32;;;;;;;17.23;9.03;;;;;;;;;;4984135;28;20050;-69
2021/12/22 02:21:00;;;;;;;20.38;11.25;;;;;;;;;;4985154;28;20077;-69
2021/12/22 02:23:27;;;;;;;19.63;10.13;;;;;;;;;;4985119;28;20088;-70
2021/12/22 02:25:58;;;;;;;19.80;9.05;;;;;;;;;;4984913;28;20570;-70
2021/12/22 02:28:29;;;;;;;17.95;8.50;;;;;;;;;;4985105;28;20058;-69
2021/12/22 02:30:56;;;;;;;16.25;7.85;;;;;;;;;;4984645;28;20616;-69
2021/12/22 02:33:25;;;;;;;18.35;8.07;;;;;;;;;;4987933;28;20058;-69
2021/12/22 02:36:09;;;;;;;17.63;8.55;;;;;;;;;;4981339;28;20062;-69
2021/12/22 02:38:40;;;;;;;17.10;8.10;;;;;;;;;;4986665;28;20470;-69
2021/12/22 02:41:10;;;;;;;17.50;8.90;;;;;;;;;;4981757;28;20142;-70
2021/12/22 02:43:43;;;;;;;18.63;9.87;;;;;;;;;;4987429;28;20054;-70
2021/12/22 02:46:10;;;;;;;14.80;7.00;;;;;;;;;;4985397;28;20607;-70
2021/12/22 02:48:37;;;;;;;14.68;7.70;;;;;;;;;;4990189;28;20146;-70
2021/12/22 02:51:04;;;;;;;20.20;8.77;;;;;;;;;;5005108;28;20515;-70
2021/12/22 02:53:39;;;;;;;15.93;8.07;;;;;;;;;;5004311;28;20069;-70
2021/12/22 02:56:17;;;;;;;15.63;8.07;;;;;;;;;;5003759;28;20078;-70
2021/12/22 02:58:56;;;;;;;14.87;7.27;;;;;;;;;;5003324;28;20041;-70
2021/12/22 03:01:39;;;;;;;18.23;8.93;;;;;;;;;;5004430;28;20053;-70
2021/12/22 03:04:12;;;;;;;17.30;8.30;;;;;;;;;;5006065;28;20042;-69
2021/12/22 03:06:45;;;;;;;15.17;7.67;;;;;;;;;;5005490;28;20061;-70
2021/12/22 03:09:16;;;;;;;14.73;7.63;;;;;;;;;;5004741;28;20064;-70
2021/12/22 03:11:44;;;;;;;14.40;6.80;;;;;;;;;;5004740;28;20471;-69
2021/12/22 03:14:10;;;;;;;17.93;8.20;;;;;;;;;;5005151;28;20088;-70
2021/12/22 03:16:37;;;;;;;18.67;8.07;;;;;;;;;;5005677;28;20145;-69
2021/12/22 03:19:04;;;;;;;19.77;7.70;;;;;;;;;;5006253;28;20136;-70
2021/12/22 03:21:30;;;;;;;15.70;7.77;;;;;;;;;;5007552;28;20504;-69
2021/12/22 03:23:57;;;;;;;15.63;7.87;;;;;;;;;;5008139;28;20081;-70
2021/12/22 03:26:25;;;;;;;16.90;8.57;;;;;;;;;;5004757;28;20456;-69
2021/12/22 03:28:53;;;;;;;14.60;8.75;;;;;;;;;;5007965;28;20057;-69
2021/12/22 03:31:20;;;;;;;18.27;8.87;;;;;;;;;;5009621;28;20133;-69
2021/12/22 03:33:46;;;;;;;18.43;8.60;;;;;;;;;;5006964;28;20137;-70
2021/12/22 03:36:13;;;;;;;16.27;7.70;;;;;;;;;;5008458;28;20121;-69
2021/12/22 03:38:39;;;;;;;17.17;8.33;;;;;;;;;;5008667;28;20530;-69
2021/12/22 03:41:08;;;;;;;17.47;8.97;;;;;;;;;;5004966;28;20073;-69
2021/12/22 03:43:35;;;;;;;14.40;7.50;;;;;;;;;;5008552;28;20073;-70
2021/12/22 03:46:03;;;;;;;19.10;9.33;;;;;;;;;;5009077;28;20187;-69
2021/12/22 03:48:30;;;;;;;16.40;9.63;;;;;;;;;;5007227;28;20642;-69
2021/12/22 03:50:57;;;;;;;20.73;8.53;;;;;;;;;;5010866;28;20077;-70
2021/12/22 03:53:24;;;;;;;22.57;9.57;;;;;;;;;;5008426;28;20073;-70
2021/12/22 03:55:51;;;;;;;19.37;9.60;;;;;;;;;;5001560;28;20060;-70
2021/12/22 03:58:17;;;;;;;25.67;9.30;;;;;;;;;;5008815;28;20046;-69
2021/12/22 04:00:44;;;;;;;18.63;9.63;;;;;;;;;;5013994;28;20128;-69
2021/12/22 04:03:17;;;;;;;14.53;8.20;;;;;;;;;;5007187;28;20479;-69
2021/12/22 04:05:44;;;;;;;17.83;8.43;;;;;;;;;;5005505;28;20049;-69
2021/12/22 04:08:13;;;;;;;19.75;9.63;;;;;;;;;;5008303;28;20137;-70
2021/12/22 04:10:40;;;;;;;19.60;8.53;;;;;;;;;;5007656;28;20083;-70
2021/12/22 04:13:06;;;;;;;20.90;8.87;;;;;;;;;;5009161;28;20053;-69
2021/12/22 04:15:34;;;;;;;20.80;9.33;;;;;;;;;;5008057;28;20128;-70
2021/12/22 04:18:01;;;;;;;16.30;7.97;;;;;;;;;;5009315;28;20056;-70
2021/12/22 04:20:29;;;;;;;18.63;8.93;;;;;;;;;;5009026;28;20081;-70
2021/12/22 04:22:56;;;;;;;19.20;8.20;;;;;;;;;;5008495;28;20050;-70
2021/12/22 04:25:23;;;;;;;17.00;7.67;;;;;;;;;;5007578;28;20502;-70
2021/12/22 04:27:51;;;;;;;18.30;8.73;;;;;;;;;;5005795;28;20734;-70
2021/12/22 04:30:18;;;;;;;20.43;8.67;;;;;;;;;;5007567;28;20131;-70
2021/12/22 04:32:45;;;;;;;17.17;8.00;;;;;;;;;;5003869;28;20050;-70
2021/12/22 04:35:12;;;;;;;18.37;8.57;;;;;;;;;;5007031;28;20129;-70
2021/12/22 04:37:40;;;;;;;19.77;8.97;;;;;;;;;;5008957;28;20133;-69
2021/12/22 04:40:08;;;;;;;16.70;8.20;;;;;;;;;;4994984;28;20108;-70
2021/12/22 04:42:34;;;;;;;16.13;8.53;;;;;;;;;;5002894;28;20140;-70
2021/12/22 04:45:05;;;;;;;18.50;9.57;;;;;;;;;;5011082;28;20129;-70
2021/12/22 04:47:33;;;;;;;17.17;9.30;;;;;;;;;;5005347;28;20072;-69
2021/12/22 04:50:00;;;;;;;18.00;8.83;;;;;;;;;;5007066;28;20046;-69
2021/12/22 04:52:34;;;;;;;19.10;9.30;;;;;;;;;;5007149;28;20049;-69
2021/12/22 04:55:04;;;;;;;19.00;8.40;;;;;;;;;;5006151;28;20065;-70
2021/12/22 04:57:32;;;;;;;19.07;9.47;;;;;;;;;;5007963;28;20152;-70
2021/12/22 04:59:58;;;;;;;19.47;9.07;;;;;;;;;;5006625;28;20124;-69
2021/12/22 05:02:25;;;;;;;16.40;9.30;;;;;;;;;;5005901;28;20248;-70
2021/12/22 05:04:51;;;;;;;22.47;9.50;;;;;;;;;;5006287;28;20049;-70
2021/12/22 05:07:18;;;;;;;17.93;9.00;;;;;;;;;;5006840;28;20136;-69
2021/12/22 05:09:44;;;;;;;18.83;8.83;;;;;;;;;;5005080;28;20132;-69
2021/12/22 05:12:12;;;;;;;22.07;9.17;;;;;;;;;;5004468;28;20565;-70
2021/12/22 05:14:40;;;;;;;20.50;8.80;;;;;;;;;;5008583;28;20129;-69
2021/12/22 05:17:16;;;;;;;16.60;8.67;;;;;;;;;;5006103;28;20511;-69
2021/12/22 05:19:43;;;;;;;20.07;8.83;;;;;;;;;;5004200;28;20463;-70
2021/12/22 05:22:09;;;;;;;22.23;10.43;;;;;;;;;;5007508;28;20136;-70
2021/12/22 05:24:36;;;;;;;16.80;9.27;;;;;;;;;;5005866;28;20142;-70
2021/12/22 05:27:03;;;;;;;20.35;10.00;;;;;;;;;;5003163;28;20148;-70
2021/12/22 05:29:31;;;;;;;19.03;9.67;;;;;;;;;;5002124;28;20053;-70
2021/12/22 05:32:00;;;;;;;22.43;9.40;;;;;;;;;;5004958;28;20137;-70
2021/12/22 05:34:27;;;;;;;20.40;10.77;;;;;;;;;;5003863;28;20168;-69
2021/12/22 05:36:54;;;;;;;24.40;8.90;;;;;;;;;;4987583;28;20053;-70
2021/12/22 05:39:21;;;;;;;16.10;7.60;;;;;;;;;;5006065;28;20488;-70
2021/12/22 05:41:47;;;;;;;17.93;9.63;;;;;;;;;;4985637;28;20700;-69
2021/12/22 05:44:14;;;;;;;27.77;10.97;;;;;;;;;;5003980;28;20140;-70
2021/12/22 05:46:42;;;;;;;17.63;9.27;;;;;;;;;;5004397;28;20064;-70
2021/12/22 05:49:08;;;;;;;19.27;8.83;;;;;;;;;;5003896;28;20133;-70
2021/12/22 05:51:35;;;;;;;14.07;8.17;;;;;;;;;;5005590;28;20074;-70
2021/12/22 05:54:02;;;;;;;21.30;8.53;;;;;;;;;;4985435;28;20122;-70
2021/12/22 05:56:30;;;;;;;19.03;8.33;;;;;;;;;;5003376;28;20050;-70
2021/12/22 05:58:56;;;;;;;23.63;9.13;;;;;;;;;;5004009;28;20443;-70
2021/12/22 06:01:23;;;;;;;19.50;9.17;;;;;;;;;;5003478;28;20050;-70
2021/12/22 06:03:51;;;;;;;38.90;17.30;;;;;;;;;;4999645;28;20156;-70
2021/12/22 06:06:17;;;;;;;25.45;11.45;;;;;;;;;;5004935;28;20069;-70
2021/12/22 06:08:44;;;;;;;23.40;11.23;;;;;;;;;;5004259;28;20133;-70
2021/12/22 06:11:10;;;;;;;21.23;11.10;;;;;;;;;;5006533;28;20136;-70
2021/12/22 06:13:37;;;;;;;27.60;10.87;;;;;;;;;;4996278;28;20054;-71
2021/12/22 06:16:04;;;;;;;23.30;11.20;;;;;;;;;;4996775;28;20956;-70
2021/12/22 06:18:31;;;;;;;25.40;11.80;;;;;;;;;;5000250;28;20049;-70
2021/12/22 06:20:59;;;;;;;27.88;12.60;;;;;;;;;;5004845;28;20056;-70
2021/12/22 06:23:25;;;;;;;23.92;10.88;;;;;;;;;;5006534;28;20061;-70
2021/12/22 06:25:53;;;;;;;21.17;11.50;;;;;;;;;;5002664;28;20078;-70
2021/12/22 06:28:19;;;;;;;24.33;12.95;;;;;;;;;;5004979;28;20054;-70
2021/12/22 06:30:46;;;;;;;22.60;11.93;;;;;;;;;;5005866;28;20530;-70
2021/12/22 06:33:12;;;;;;;38.20;15.93;;;;;;;;;;5006834;28;20133;-70
2021/12/22 06:35:39;;;;;;;32.47;13.55;;;;;;;;;;5006058;28;20133;-70
2021/12/22 06:38:08;;;;;;;29.98;14.07;;;;;;;;;;5006741;28;20145;-70
2021/12/22 06:40:35;;;;;;;31.77;13.93;;;;;;;;;;5001439;28;20132;-70
2021/12/22 06:43:01;;;;;;;30.13;13.80;;;;;;;;;;5001054;28;20051;-70
2021/12/22 06:45:29;;;;;;;29.13;14.68;;;;;;;;;;5006633;28;20136;-70
2021/12/22 06:47:55;;;;;;;32.72;15.07;;;;;;;;;;5006553;28;20246;-70
2021/12/22 06:50:22;;;;;;;69.97;16.77;;;;;;;;;;4986206;28;20070;-70
2021/12/22 06:52:48;;;;;;;34.60;14.10;;;;;;;;;;4986084;28;20077;-70
2021/12/22 06:55:17;;;;;;;29.02;13.70;;;;;;;;;;4986618;28;20133;-70
2021/12/22 06:57:43;;;;;;;23.80;12.75;;;;;;;;;;4972979;28;20496;-70
2021/12/22 07:00:12;;;;;;;32.28;13.60;;;;;;;;;;4990749;28;20074;-70
2021/12/22 07:02:39;;;;;;;26.77;13.05;;;;;;;;;;4992040;28;20626;-70
2021/12/22 07:05:09;;;;;;;28.02;12.40;;;;;;;;;;4991272;28;20073;-70
2021/12/22 07:07:36;;;;;;;32.60;12.63;;;;;;;;;;4990330;28;20469;-70
2021/12/22 07:10:03;;;;;;;28.10;13.75;;;;;;;;;;4991995;28;20125;-70
2021/12/22 07:12:31;;;;;;;29.25;11.27;;;;;;;;;;4989991;28;20054;-70
2021/12/22 07:14:58;;;;;;;30.98;14.77;;;;;;;;;;4991318;28;20517;-70
2021/12/22 07:17:25;;;;;;;29.63;13.90;;;;;;;;;;4986499;28;20125;-70
2021/12/22 07:19:51;;;;;;;25.38;13.68;;;;;;;;;;4990536;28;20663;-70
2021/12/22 07:22:18;;;;;;;27.77;13.88;;;;;;;;;;4993800;28;20107;-70
2021/12/22 07:24:44;;;;;;;26.52;13.10;;;;;;;;;;4990888;28;20081;-70
2021/12/22 07:27:11;;;;;;;25.55;12.18;;;;;;;;;;4990028;28;20137;-70
2021/12/22 07:29:41;;;;;;;30.35;14.65;;;;;;;;;;4989907;28;20137;-70
2021/12/22 07:32:08;;;;;;;28.17;15.32;;;;;;;;;;4989981;28;20089;-70
2021/12/22 07:34:39;;;;;;;38.22;19.02;;;;;;;;;;4991346;28;20154;-70
2021/12/22 07:37:16;;;;;;;41.80;19.20;;;;;;;;;;4991629;28;20109;-70
2021/12/22 07:39:42;;;;;;;35.65;17.08;;;;;;;;;;4990795;28;20160;-70
2021/12/22 07:42:09;;;;;;;34.78;16.42;;;;;;;;;;4990095;28;20097;-70
2021/12/22 07:44:36;;;;;;;36.92;16.77;;;;;;;;;;4990068;28;20137;-70
2021/12/22 07:47:04;;;;;;;38.13;17.73;;;;;;;;;;4972601;28;20057;-70
2021/12/22 07:49:31;;;;;;;37.42;18.52;;;;;;;;;;5002060;28;20124;-70
2021/12/22 07:51:57;;;;;;;32.85;16.33;;;;;;;;;;5004019;28;20544;-70
2021/12/22 07:54:24;;;;;;;36.88;18.10;;;;;;;;;;4982373;28;20105;-70
2021/12/22 07:56:51;;;;;;;45.20;19.20;;;;;;;;;;4999032;28;20560;-70
2021/12/22 07:59:17;;;;;;;34.40;17.33;;;;;;;;;;5008978;28;20092;-70
2021/12/22 08:01:44;;;;;;;40.35;17.83;;;;;;;;;;5009388;28;20057;-70
2021/12/22 08:04:12;;;;;;;35.25;16.98;;;;;;;;;;5009386;28;20144;-70
2021/12/22 08:06:38;;;;;;;29.10;14.73;;;;;;;;;;4990496;28;20081;-70
2021/12/22 08:09:05;;;;;;;28.10;15.18;;;;;;;;;;5009357;28;20130;-70
2021/12/22 08:11:31;;;;;;;26.23;12.10;;;;;;;;;;5001517;28;20138;-70
2021/12/22 08:13:58;;;;;;;32.58;14.30;;;;;;;;;;4971589;28;20132;-70
2021/12/22 08:16:24;;;;;;;29.10;13.43;;;;;;;;;;5002303;28;20140;-71
2021/12/22 08:18:51;;;;;;;26.88;13.60;;;;;;;;;;5009331;28;20133;-70
2021/12/22 08:21:19;;;;;;;30.45;14.35;;;;;;;;;;5008546;28;20149;-69
2021/12/22 08:23:46;;;;;;;27.77;13.73;;;;;;;;;;5000492;28;20800;-70
2021/12/22 08:26:12;;;;;;;25.58;14.13;;;;;;;;;;5004321;28;20144;-70
2021/12/22 08:28:39;;;;;;;26.38;13.48;;;;;;;;;;5002645;28;20149;-70
2021/12/22 08:31:05;;;;;;;25.58;13.88;;;;;;;;;;5007741;28;20124;-70
2021/12/22 08:33:38;;;;;;;30.05;14.52;;;;;;;;;;5005980;28;20634;-70
2021/12/22 08:38:54;;;;;;;26.25;14.32;;;;;;;;;;5006016;28;20064;-70
2021/12/22 08:41:22;;;;;;;29.60;14.48;;;;;;;;;;5003350;28;20129;-70
2021/12/22 08:43:49;;;;;;;49.83;15.35;;;;;;;;;;5008114;28;20053;-70
2021/12/22 08:46:16;;;;;;;28.40;14.50;;;;;;;;;;5006797;28;20132;-70
2021/12/22 08:48:42;;;;;;;27.05;13.77;;;;;;;;;;4989469;28;20542;-70
2021/12/22 08:51:09;;;;;;;28.35;14.32;;;;;;;;;;5002507;28;20049;-70
2021/12/22 08:53:36;;;;;;;23.77;13.40;;;;;;;;;;5006642;28;20136;-70
2021/12/22 08:56:04;;;;;;;27.02;13.38;;;;;;;;;;5001885;28;20559;-70
2021/12/22 08:58:31;;;;;;;25.25;13.02;;;;;;;;;;5002055;28;20137;-70
2021/12/22 09:00:58;;;;;;;28.60;14.15;;;;;;;;;;5000924;28;20515;-70
2021/12/22 09:03:24;;;;;;;28.30;12.70;;;;;;;;;;5007542;28;20713;-69
2021/12/22 09:05:51;;;;;;;27.60;14.27;;;;;;;;;;5005403;28;20137;-70
2021/12/22 09:08:18;;;;;;;25.35;12.52;;;;;;;;;;5005500;28;20069;-70
2021/12/22 09:10:44;;;;;;;27.92;14.88;;;;;;;;;;5010704;28;20492;-70
2021/12/22 09:13:15;;;;;;;27.08;13.20;;;;;;;;;;5006161;28;20737;-70
2021/12/22 09:15:41;;;;;;;30.38;14.50;;;;;;;;;;5007218;28;20597;-70
2021/12/22 09:18:08;;;;;;;29.58;15.30;;;;;;;;;;5006905;28;20088;-70
2021/12/22 09:20:34;;;;;;;30.25;15.27;;;;;;;;;;5009173;28;20550;-70
2021/12/22 09:23:01;;;;;;;31.40;15.60;;;;;;;;;;5007056;28;20128;-70
2021/12/22 09:25:27;;;;;;;33.58;15.88;;;;;;;;;;5004192;28;20474;-70
2021/12/22 09:27:54;;;;;;;34.47;16.55;;;;;;;;;;5000423;28;20148;-70
2021/12/22 09:30:22;;;;;;;33.95;15.68;;;;;;;;;;5007419;28;20568;-70
2021/12/22 09:32:49;;;;;;;33.75;16.77;;;;;;;;;;5006349;28;20053;-70
2021/12/22 09:35:15;;;;;;;37.92;16.52;;;;;;;;;;5006769;28;20512;-70
2021/12/22 09:37:42;;;;;;;28.80;14.80;;;;;;;;;;5006907;28;20153;-70
2021/12/22 09:40:09;;;;;;;28.67;13.95;;;;;;;;;;5008819;28;20153;-70
2021/12/22 09:42:36;;;;;;;30.23;15.15;;;;;;;;;;4998221;28;20084;-70
2021/12/22 09:45:03;;;;;;;29.02;14.73;;;;;;;;;;5007187;28;20105;-70
2021/12/22 09:47:47;;;;;;;31.75;14.88;;;;;;;;;;5002422;28;20053;-70
2021/12/22 09:50:23;;;;;;;32.03;15.02;;;;;;;;;;5004195;28;20042;-70
2021/12/22 09:52:50;;;;;;;28.73;14.05;;;;;;;;;;4994793;28;20121;-70
2021/12/22 09:55:17;;;;;;;29.05;15.02;;;;;;;;;;5005746;28;20156;-70
2021/12/22 09:57:44;;;;;;;31.77;16.33;;;;;;;;;;5001100;28;20077;-70
2021/12/22 10:00:11;;;;;;;31.15;16.23;;;;;;;;;;5002945;28;20057;-70
2021/12/22 10:02:39;;;;;;;33.05;15.77;;;;;;;;;;5004773;28;20144;-70
2021/12/22 10:05:06;;;;;;;27.65;15.70;;;;;;;;;;5006160;28;20129;-70
2021/12/22 10:07:37;;;;;;;32.55;17.98;;;;;;;;;;5004699;28;20468;-70
2021/12/22 10:10:08;;;;;;;28.45;14.70;;;;;;;;;;5000489;28;20050;-70
2021/12/22 10:12:35;;;;;;;33.22;16.52;;;;;;;;;;5007786;28;20052;-70
2021/12/22 10:15:06;;;;;;;33.33;15.63;;;;;;;;;;5006464;28;20061;-70
2021/12/22 10:17:35;;;;;;;28.98;15.63;;;;;;;;;;5005443;28;20073;-70
2021/12/22 10:20:08;;;;;;;29.90;14.55;;;;;;;;;;5008116;28;20052;-70
2021/12/22 10:22:37;;;;;;;33.85;16.83;;;;;;;;;;5006483;28;20052;-70
2021/12/22 10:25:10;;;;;;;38.83;15.40;;;;;;;;;;5006397;28;20510;-70
2021/12/22 10:27:38;;;;;;;30.20;15.27;;;;;;;;;;5000664;28;20688;-71
2021/12/22 10:30:26;;;;;;;32.78;16.33;;;;;;;;;;5005843;28;20145;-70
2021/12/22 10:33:08;;;;;;;32.42;15.88;;;;;;;;;;5001635;28;20153;-71
2021/12/22 10:35:38;;;;;;;31.90;16.38;;;;;;;;;;5003877;28;20081;-71
2021/12/22 10:38:06;;;;;;;30.65;14.95;;;;;;;;;;5005154;28;20057;-70
2021/12/22 10:40:34;;;;;;;30.55;14.40;;;;;;;;;;5005656;28;20149;-70
2021/12/22 10:43:02;;;;;;;32.30;16.75;;;;;;;;;;5001815;28;20136;-71
2021/12/22 10:45:32;;;;;;;29.65;15.85;;;;;;;;;;4987822;28;20145;-71
2021/12/22 10:50:46;;;;;;;26.30;15.02;;;;;;;;;;5008980;28;20085;-70
2021/12/22 10:53:15;;;;;;;31.13;15.45;;;;;;;;;;5005999;28;20084;-71
2021/12/22 10:55:43;;;;;;;30.00;14.95;;;;;;;;;;5004775;28;20085;-71
2021/12/22 10:58:21;;;;;;;28.00;14.43;;;;;;;;;;5002314;28;20741;-71
2021/12/22 11:01:01;;;;;;;31.60;14.20;;;;;;;;;;5005482;28;20134;-71
2021/12/22 11:03:36;;;;;;;26.13;14.02;;;;;;;;;;5003509;28;20053;-71
2021/12/22 11:06:10;;;;;;;27.00;14.23;;;;;;;;;;5005427;28;20411;-71
2021/12/22 11:08:37;;;;;;;30.17;15.13;;;;;;;;;;5002127;28;20308;-71
2021/12/22 11:11:12;;;;;;;27.20;14.00;;;;;;;;;;5006234;28;20145;-70
2021/12/22 11:13:39;;;;;;;29.03;15.37;;;;;;;;;;5005940;28;20591;-71
2021/12/22 11:16:11;;;;;;;33.72;15.07;;;;;;;;;;5003889;28;20076;-70
2021/12/22 11:18:38;;;;;;;26.75;15.18;;;;;;;;;;5003549;28;20137;-70
2021/12/22 11:21:13;;;;;;;27.65;14.52;;;;;;;;;;5005129;28;20572;-71
2021/12/22 11:23:40;;;;;;;26.52;13.93;;;;;;;;;;5005353;28;20049;-71
2021/12/22 11:26:07;;;;;;;29.10;14.43;;;;;;;;;;5003440;28;20486;-71
2021/12/22 11:28:34;;;;;;;26.08;15.25;;;;;;;;;;5004305;28;20133;-71
2021/12/22 11:31:02;;;;;;;27.80;15.57;;;;;;;;;;5004462;28;20050;-70
2021/12/22 11:33:30;;;;;;;31.05;14.75;;;;;;;;;;5005452;28;20045;-71
2021/12/22 11:35:57;;;;;;;32.38;16.35;;;;;;;;;;5006006;28;20052;-70
2021/12/22 11:38:26;;;;;;;25.70;14.63;;;;;;;;;;5005198;28;20455;-71
2021/12/22 11:40:56;;;;;;;29.23;15.48;;;;;;;;;;5005034;28;20683;-71
2021/12/22 11:43:24;;;;;;;27.65;15.07;;;;;;;;;;4999602;28;20050;-71
2021/12/22 11:45:54;;;;;;;26.25;14.80;;;;;;;;;;5002590;28;20049;-71
2021/12/22 11:48:20;;;;;;;28.65;14.27;;;;;;;;;;5006233;28;20136;-71
2021/12/22 11:50:48;;;;;;;37.47;18.15;;;;;;;;;;5002613;28;20092;-71
2021/12/22 11:53:15;;;;;;;31.90;16.88;;;;;;;;;;5009437;28;20125;-71
2021/12/22 11:55:45;;;;;;;30.75;16.00;;;;;;;;;;5008699;28;20080;-71
2021/12/22 11:58:14;;;;;;;32.47;15.07;;;;;;;;;;5005066;28;20057;-72
2021/12/22 12:00:41;;;;;;;30.33;15.45;;;;;;;;;;5006153;28;20137;-71
2021/12/22 12:03:23;;;;;;;32.83;15.45;;;;;;;;;;5007808;28;20153;-71
2021/12/22 12:06:08;;;;;;;31.42;15.88;;;;;;;;;;5002957;28;20085;-71
2021/12/22 12:08:36;;;;;;;29.17;15.93;;;;;;;;;;4996298;28;20089;-71
2021/12/22 12:11:05;;;;;;;32.25;15.02;;;;;;;;;;4998460;28;20203;-71
2021/12/22 12:13:40;;;;;;;28.83;14.70;;;;;;;;;;4999048;28;20054;-71
2021/12/22 12:22:09;;;;;;;29.77;14.65;;;;;;;;;;5001399;28;20057;-71
2021/12/22 12:24:38;;;;;;;31.58;15.75;;;;;;;;;;5001427;28;20625;-71
2021/12/22 12:27:45;;;;;;;33.92;17.42;;;;;;;;;;5001784;28;20112;-71
2021/12/22 12:30:24;;;;;;;27.13;14.55;;;;;;;;;;5000385;28;20115;-71
2021/12/22 12:33:02;;;;;;;28.83;15.73;;;;;;;;;;5000738;28;20144;-71
2021/12/22 12:35:31;;;;;;;29.23;15.63;;;;;;;;;;5001053;28;20540;-71
2021/12/22 12:38:09;;;;;;;24.70;13.57;;;;;;;;;;5002305;28;20061;-71
2021/12/22 12:41:14;;;;;;;32.50;15.68;;;;;;;;;;5000529;28;20077;-71
2021/12/22 12:43:56;;;;;;;29.10;15.43;;;;;;;;;;4999334;28;20057;-71
2021/12/22 12:46:37;;;;;;;30.25;14.63;;;;;;;;;;5000883;28;20056;-71
2021/12/22 12:49:38;;;;;;;29.48;15.60;;;;;;;;;;5000677;28;20065;-71
2021/12/22 12:52:22;;;;;;;25.30;13.82;;;;;;;;;;5001526;28;20053;-71
2021/12/22 12:54:50;;;;;;;27.92;14.05;;;;;;;;;;5001368;28;20140;-71
2021/12/22 12:57:28;;;;;;;30.92;15.50;;;;;;;;;;5001044;28;20144;-71
2021/12/22 13:00:03;;;;;;;29.55;16.23;;;;;;;;;;5002403;28;20687;-71
2021/12/22 13:02:31;;;;;;;31.73;15.15;;;;;;;;;;4999820;28;20428;-71
2021/12/22 13:05:00;;;;;;;29.88;15.02;;;;;;;;;;5001920;28;20115;-72
2021/12/22 13:07:27;;;;;;;28.95;14.90;;;;;;;;;;5002100;28;20077;-71
2021/12/22 13:10:01;;;;;;;30.77;15.40;;;;;;;;;;5001925;28;20180;-71
2021/12/22 13:13:00;;;;;;;30.08;14.02;;;;;;;;;;4999485;28;20049;-71
2021/12/22 13:18:15;;;;;;;31.08;15.10;;;;;;;;;;4999082;28;20227;-71
2021/12/22 13:20:42;;;;;;;28.15;15.50;;;;;;;;;;5001673;28;20095;-71
2021/12/22 13:23:11;;;;;;;28.63;15.52;;;;;;;;;;4998065;28;20129;-71
2021/12/22 13:25:39;;;;;;;30.40;16.52;;;;;;;;;;4999622;28;20144;-70
2021/12/22 13:28:08;;;;;;;31.65;16.27;;;;;;;;;;5000175;28;20141;-71
2021/12/22 13:30:38;;;;;;;31.55;16.08;;;;;;;;;;5001754;28;20112;-71
2021/12/22 13:33:07;;;;;;;29.58;14.93;;;;;;;;;;5001137;28;20073;-71
2021/12/22 13:35:36;;;;;;;30.63;16.40;;;;;;;;;;5000707;28;20084;-71
2021/12/22 13:38:05;;;;;;;29.33;15.00;;;;;;;;;;4998313;28;20068;-71
2021/12/22 13:40:37;;;;;;;34.78;16.90;;;;;;;;;;5001817;28;21013;-71
2021/12/22 13:43:04;;;;;;;32.42;16.45;;;;;;;;;;4999755;28;20053;-71
2021/12/22 13:45:31;;;;;;;32.08;16.85;;;;;;;;;;4998641;28;20060;-71
2021/12/22 13:47:59;;;;;;;30.85;15.80;;;;;;;;;;4998555;28;20144;-71
2021/12/22 13:50:26;;;;;;;31.85;16.08;;;;;;;;;;5001407;28;20054;-71
2021/12/22 13:52:53;;;;;;;31.10;16.77;;;;;;;;;;5001984;28;20138;-71
2021/12/22 13:55:21;;;;;;;36.60;16.95;;;;;;;;;;5000450;28;20145;-71
2021/12/22 13:57:47;;;;;;;31.27;16.27;;;;;;;;;;4998444;28;20138;-71
2021/12/22 14:00:19;;;;;;;31.35;15.80;;;;;;;;;;4999742;28;20048;-71
2021/12/22 14:02:46;;;;;;;38.50;18.20;;;;;;;;;;5001103;28;20128;-71
2021/12/22 14:05:16;;;;;;;30.52;15.35;;;;;;;;;;5000035;28;20061;-71
2021/12/22 14:07:42;;;;;;;30.15;15.20;;;;;;;;;;5000332;28;20536;-71
2021/12/22 14:10:11;;;;;;;32.50;16.52;;;;;;;;;;4999394;28;20129;-71
2021/12/22 14:12:39;;;;;;;36.38;17.42;;;;;;;;;;5000614;28;20145;-72
2021/12/22 14:15:07;;;;;;;33.97;18.35;;;;;;;;;;4999047;28;20588;-71
2021/12/22 14:17:37;;;;;;;35.83;17.30;;;;;;;;;;4998625;28;20595;-70
2021/12/22 14:20:16;;;;;;;36.25;17.70;;;;;;;;;;5000250;28;20165;-71
2021/12/22 14:22:45;;;;;;;30.88;15.73;;;;;;;;;;5000025;28;20060;-71
2021/12/22 14:25:16;;;;;;;35.65;16.65;;;;;;;;;;4999974;28;20046;-71
2021/12/22 14:27:45;;;;;;;34.70;17.45;;;;;;;;;;4998208;28;20054;-71
2021/12/22 14:30:23;;;;;;;36.10;17.33;;;;;;;;;;4998363;28;20466;-71
2021/12/22 14:32:55;;;;;;;30.48;16.38;;;;;;;;;;5000099;28;20128;-71
2021/12/22 14:35:24;;;;;;;33.13;16.55;;;;;;;;;;4999494;28;20153;-71
2021/12/22 14:37:57;;;;;;;32.92;16.98;;;;;;;;;;5000020;28;20474;-71
2021/12/22 14:40:25;;;;;;;35.45;17.45;;;;;;;;;;4999969;28;20085;-71
2021/12/22 14:42:57;;;;;;;37.15;17.92;;;;;;;;;;5000076;28;20050;-71
2021/12/22 14:45:28;;;;;;;34.70;18.17;;;;;;;;;;4981057;28;20045;-71
2021/12/22 14:48:09;;;;;;;37.47;17.98;;;;;;;;;;5001124;28;20061;-71
2021/12/22 14:50:39;;;;;;;33.67;16.75;;;;;;;;;;4979381;28;20177;-71